sensor_id;sensor_type;location;lat;lon;timestamp;P1;durP1;ratioP1;P2;durP2;ratioP2
72037;SDS011;59900;50.788;12.904;2022-08-19T00:00:09;35.63;;;20.53;;
72037;SDS011;59900;50.788;12.904;2022-08-19T00:02:35;31.73;;;20.00;;
72037;SDS011;59900;50.788;12.904;2022-08-19T00:05:01;35.10;;;20.20;;
72037;SDS011;59900;50.788;12.904;2022-08-19T00:07:26;32.88;;;20.77;;
72037;SDS011;59900;50.788;12.904;2022-08-19T00:09:52;29.40;;;19.07;;
72037;SDS011;59900;50.788;12.904;2022-08-19T00:12:17;31.87;;;19.33;;
72037;SDS011;59900;50.788;12.904;2022-08-19T00:14:42;30.58;;;18.95;;
72037;SDS011;59900;50.788;12.904;2022-08-19T00:17:08;32.13;;;19.00;;
72037;SDS011;59900;50.788;12.904;2022-08-19T00:19:34;31.97;;;17.57;;
72037;SDS011;59900;50.788;12.904;2022-08-19T00:22:02;30.13;;;18.65;;
72037;SDS011;59900;50.788;12.904;2022-08-19T00:24:28;30.45;;;19.05;;
72037;SDS011;59900;50.788;12.904;2022-08-19T00:26:54;29.17;;;17.87;;
72037;SDS011;59900;50.788;12.904;2022-08-19T00:29:21;27.10;;;17.67;;
72037;SDS011;59900;50.788;12.904;2022-08-19T00:31:48;28.35;;;17.48;;
72037;SDS011;59900;50.788;12.904;2022-08-19T00:34:15;30.30;;;18.02;;
72037;SDS011;59900;50.788;12.904;2022-08-19T00:36:40;26.33;;;17.60;;
72037;SDS011;59900;50.788;12.904;2022-08-19T00:39:06;27.20;;;17.67;;
72037;SDS011;59900;50.788;12.904;2022-08-19T00:41:32;29.80;;;17.63;;
72037;SDS011;59900;50.788;12.904;2022-08-19T00:46:31;28.92;;;17.60;;
72037;SDS011;59900;50.788;12.904;2022-08-19T00:48:58;26.75;;;17.30;;
72037;SDS011;59900;50.788;12.904;2022-08-19T00:51:26;28.95;;;17.70;;
72037;SDS011;59900;50.788;12.904;2022-08-19T00:53:54;26.05;;;17.60;;
72037;SDS011;59900;50.788;12.904;2022-08-19T00:56:21;26.50;;;17.30;;
72037;SDS011;59900;50.788;12.904;2022-08-19T00:58:48;28.52;;;17.45;;
72037;SDS011;59900;50.788;12.904;2022-08-19T01:01:14;28.30;;;17.67;;
72037;SDS011;59900;50.788;12.904;2022-08-19T01:03:39;30.07;;;17.93;;
72037;SDS011;59900;50.788;12.904;2022-08-19T01:06:05;29.43;;;18.20;;
72037;SDS011;59900;50.788;12.904;2022-08-19T01:08:30;32.47;;;18.17;;
72037;SDS011;59900;50.788;12.904;2022-08-19T01:10:56;28.43;;;18.00;;
72037;SDS011;59900;50.788;12.904;2022-08-19T01:13:25;29.17;;;17.60;;
72037;SDS011;59900;50.788;12.904;2022-08-19T01:15:56;30.88;;;18.42;;
72037;SDS011;59900;50.788;12.904;2022-08-19T01:18:29;26.33;;;17.07;;
72037;SDS011;59900;50.788;12.904;2022-08-19T01:20:58;27.33;;;17.20;;
72037;SDS011;59900;50.788;12.904;2022-08-19T01:23:27;29.38;;;17.33;;
72037;SDS011;59900;50.788;12.904;2022-08-19T01:26:07;29.58;;;17.70;;
72037;SDS011;59900;50.788;12.904;2022-08-19T01:28:38;27.20;;;17.08;;
72037;SDS011;59900;50.788;12.904;2022-08-19T01:31:03;27.70;;;17.67;;
72037;SDS011;59900;50.788;12.904;2022-08-19T01:33:29;30.70;;;17.35;;
72037;SDS011;59900;50.788;12.904;2022-08-19T01:36:03;27.37;;;16.80;;
72037;SDS011;59900;50.788;12.904;2022-08-19T01:38:29;26.15;;;16.48;;
72037;SDS011;59900;50.788;12.904;2022-08-19T01:40:56;27.75;;;17.88;;
72037;SDS011;59900;50.788;12.904;2022-08-19T01:43:22;25.35;;;16.33;;
72037;SDS011;59900;50.788;12.904;2022-08-19T01:45:47;25.40;;;16.40;;
72037;SDS011;59900;50.788;12.904;2022-08-19T01:48:13;28.77;;;15.97;;
72037;SDS011;59900;50.788;12.904;2022-08-19T01:50:39;26.10;;;16.35;;
72037;SDS011;59900;50.788;12.904;2022-08-19T01:53:05;26.70;;;15.73;;
72037;SDS011;59900;50.788;12.904;2022-08-19T01:55:35;26.88;;;17.02;;
72037;SDS011;59900;50.788;12.904;2022-08-19T01:58:03;26.40;;;16.07;;
72037;SDS011;59900;50.788;12.904;2022-08-19T02:00:30;25.98;;;16.13;;
72037;SDS011;59900;50.788;12.904;2022-08-19T02:02:57;24.52;;;16.50;;
72037;SDS011;59900;50.788;12.904;2022-08-19T02:05:22;24.90;;;16.30;;
72037;SDS011;59900;50.788;12.904;2022-08-19T02:07:48;26.95;;;14.82;;
72037;SDS011;59900;50.788;12.904;2022-08-19T02:10:15;27.67;;;15.57;;
72037;SDS011;59900;50.788;12.904;2022-08-19T02:12:44;27.10;;;15.50;;
72037;SDS011;59900;50.788;12.904;2022-08-19T02:15:10;24.95;;;15.07;;
72037;SDS011;59900;50.788;12.904;2022-08-19T02:17:37;25.20;;;15.83;;
72037;SDS011;59900;50.788;12.904;2022-08-19T02:20:03;23.73;;;15.13;;
72037;SDS011;59900;50.788;12.904;2022-08-19T02:22:29;26.30;;;15.63;;
72037;SDS011;59900;50.788;12.904;2022-08-19T02:24:54;24.73;;;14.67;;
72037;SDS011;59900;50.788;12.904;2022-08-19T02:27:20;22.95;;;14.75;;
72037;SDS011;59900;50.788;12.904;2022-08-19T02:29:46;24.83;;;15.55;;
72037;SDS011;59900;50.788;12.904;2022-08-19T02:32:12;24.50;;;15.23;;
72037;SDS011;59900;50.788;12.904;2022-08-19T02:34:38;25.85;;;15.82;;
72037;SDS011;59900;50.788;12.904;2022-08-19T02:37:04;23.50;;;14.97;;
72037;SDS011;59900;50.788;12.904;2022-08-19T02:39:29;25.97;;;16.00;;
72037;SDS011;59900;50.788;12.904;2022-08-19T02:41:54;27.50;;;15.57;;
72037;SDS011;59900;50.788;12.904;2022-08-19T02:44:19;25.17;;;15.27;;
72037;SDS011;59900;50.788;12.904;2022-08-19T02:46:46;26.37;;;16.60;;
72037;SDS011;59900;50.788;12.904;2022-08-19T02:49:12;25.33;;;15.20;;
72037;SDS011;59900;50.788;12.904;2022-08-19T02:51:40;25.85;;;15.20;;
72037;SDS011;59900;50.788;12.904;2022-08-19T02:54:07;24.38;;;14.98;;
72037;SDS011;59900;50.788;12.904;2022-08-19T02:56:34;27.47;;;16.07;;
72037;SDS011;59900;50.788;12.904;2022-08-19T02:58:59;23.70;;;15.05;;
72037;SDS011;59900;50.788;12.904;2022-08-19T03:01:27;25.87;;;15.30;;
72037;SDS011;59900;50.788;12.904;2022-08-19T03:03:57;26.48;;;16.00;;
72037;SDS011;59900;50.788;12.904;2022-08-19T03:06:24;26.73;;;15.63;;
72037;SDS011;59900;50.788;12.904;2022-08-19T03:08:50;25.40;;;15.05;;
72037;SDS011;59900;50.788;12.904;2022-08-19T03:11:20;28.83;;;15.83;;
72037;SDS011;59900;50.788;12.904;2022-08-19T03:13:46;25.88;;;15.60;;
72037;SDS011;59900;50.788;12.904;2022-08-19T03:16:14;25.23;;;15.38;;
72037;SDS011;59900;50.788;12.904;2022-08-19T03:18:40;25.38;;;15.57;;
72037;SDS011;59900;50.788;12.904;2022-08-19T03:21:05;29.17;;;15.70;;
72037;SDS011;59900;50.788;12.904;2022-08-19T03:23:31;25.57;;;16.83;;
72037;SDS011;59900;50.788;12.904;2022-08-19T03:25:56;25.75;;;16.20;;
72037;SDS011;59900;50.788;12.904;2022-08-19T03:28:22;26.00;;;16.00;;
72037;SDS011;59900;50.788;12.904;2022-08-19T03:30:55;28.87;;;16.63;;
72037;SDS011;59900;50.788;12.904;2022-08-19T03:33:25;29.65;;;17.58;;
72037;SDS011;59900;50.788;12.904;2022-08-19T03:38:29;33.63;;;17.63;;
72037;SDS011;59900;50.788;12.904;2022-08-19T03:40:55;31.70;;;17.90;;
72037;SDS011;59900;50.788;12.904;2022-08-19T03:43:20;31.00;;;17.53;;
72037;SDS011;59900;50.788;12.904;2022-08-19T03:45:46;35.65;;;18.60;;
72037;SDS011;59900;50.788;12.904;2022-08-19T03:48:12;37.55;;;19.50;;
72037;SDS011;59900;50.788;12.904;2022-08-19T03:50:40;35.47;;;19.67;;
72037;SDS011;59900;50.788;12.904;2022-08-19T03:53:05;36.70;;;19.50;;
72037;SDS011;59900;50.788;12.904;2022-08-19T03:55:32;36.03;;;19.20;;
72037;SDS011;59900;50.788;12.904;2022-08-19T03:57:57;39.90;;;19.20;;
72037;SDS011;59900;50.788;12.904;2022-08-19T04:00:23;38.88;;;20.10;;
72037;SDS011;59900;50.788;12.904;2022-08-19T04:02:48;38.57;;;20.87;;
72037;SDS011;59900;50.788;12.904;2022-08-19T04:05:13;41.43;;;20.17;;
72037;SDS011;59900;50.788;12.904;2022-08-19T04:07:39;40.33;;;19.40;;
72037;SDS011;59900;50.788;12.904;2022-08-19T04:10:05;45.73;;;21.97;;
72037;SDS011;59900;50.788;12.904;2022-08-19T04:12:31;44.17;;;20.23;;
72037;SDS011;59900;50.788;12.904;2022-08-19T04:14:56;49.10;;;22.85;;
72037;SDS011;59900;50.788;12.904;2022-08-19T04:17:21;44.53;;;20.40;;
72037;SDS011;59900;50.788;12.904;2022-08-19T04:19:47;69.00;;;20.67;;
72037;SDS011;59900;50.788;12.904;2022-08-19T04:22:12;56.10;;;20.80;;
72037;SDS011;59900;50.788;12.904;2022-08-19T04:24:37;54.27;;;22.07;;
72037;SDS011;59900;50.788;12.904;2022-08-19T04:27:03;53.23;;;21.53;;
72037;SDS011;59900;50.788;12.904;2022-08-19T04:29:30;57.80;;;20.97;;
72037;SDS011;59900;50.788;12.904;2022-08-19T04:31:55;55.50;;;20.73;;
72037;SDS011;59900;50.788;12.904;2022-08-19T04:34:22;52.37;;;19.77;;
72037;SDS011;59900;50.788;12.904;2022-08-19T04:36:50;59.20;;;21.48;;
72037;SDS011;59900;50.788;12.904;2022-08-19T04:39:20;69.30;;;20.88;;
72037;SDS011;59900;50.788;12.904;2022-08-19T04:42:08;55.55;;;19.70;;
72037;SDS011;59900;50.788;12.904;2022-08-19T04:44:52;64.65;;;19.13;;
72037;SDS011;59900;50.788;12.904;2022-08-19T04:47:17;92.47;;;20.70;;
72037;SDS011;59900;50.788;12.904;2022-08-19T04:49:43;60.20;;;19.13;;
72037;SDS011;59900;50.788;12.904;2022-08-19T04:52:08;66.83;;;19.33;;
72037;SDS011;59900;50.788;12.904;2022-08-19T04:54:34;49.37;;;20.20;;
72037;SDS011;59900;50.788;12.904;2022-08-19T04:56:59;51.65;;;19.55;;
72037;SDS011;59900;50.788;12.904;2022-08-19T04:59:24;51.43;;;18.70;;
72037;SDS011;59900;50.788;12.904;2022-08-19T05:01:52;53.33;;;18.90;;
72037;SDS011;59900;50.788;12.904;2022-08-19T05:04:18;53.50;;;18.83;;
72037;SDS011;59900;50.788;12.904;2022-08-19T05:06:46;58.08;;;18.27;;
72037;SDS011;59900;50.788;12.904;2022-08-19T05:09:12;53.00;;;18.50;;
72037;SDS011;59900;50.788;12.904;2022-08-19T05:11:37;60.10;;;19.37;;
72037;SDS011;59900;50.788;12.904;2022-08-19T05:14:04;60.20;;;19.20;;
72037;SDS011;59900;50.788;12.904;2022-08-19T05:16:30;54.33;;;18.48;;
72037;SDS011;59900;50.788;12.904;2022-08-19T05:18:55;47.03;;;17.43;;
72037;SDS011;59900;50.788;12.904;2022-08-19T05:21:40;47.85;;;18.13;;
72037;SDS011;59900;50.788;12.904;2022-08-19T05:24:25;39.17;;;16.55;;
72037;SDS011;59900;50.788;12.904;2022-08-19T05:26:51;41.58;;;16.52;;
72037;SDS011;59900;50.788;12.904;2022-08-19T05:29:21;36.97;;;15.83;;
72037;SDS011;59900;50.788;12.904;2022-08-19T05:31:48;36.35;;;16.50;;
72037;SDS011;59900;50.788;12.904;2022-08-19T05:34:15;33.13;;;16.08;;
72037;SDS011;59900;50.788;12.904;2022-08-19T05:36:41;30.90;;;14.82;;
72037;SDS011;59900;50.788;12.904;2022-08-19T05:39:11;33.45;;;15.13;;
72037;SDS011;59900;50.788;12.904;2022-08-19T05:41:45;27.73;;;14.17;;
72037;SDS011;59900;50.788;12.904;2022-08-19T05:44:13;25.13;;;12.93;;
72037;SDS011;59900;50.788;12.904;2022-08-19T05:46:40;27.77;;;13.68;;
72037;SDS011;59900;50.788;12.904;2022-08-19T05:49:08;26.25;;;13.13;;
72037;SDS011;59900;50.788;12.904;2022-08-19T05:51:34;28.23;;;13.50;;
72037;SDS011;59900;50.788;12.904;2022-08-19T05:54:01;30.40;;;14.30;;
72037;SDS011;59900;50.788;12.904;2022-08-19T05:56:28;33.72;;;15.18;;
72037;SDS011;59900;50.788;12.904;2022-08-19T05:58:55;35.73;;;16.00;;
72037;SDS011;59900;50.788;12.904;2022-08-19T06:01:21;37.00;;;15.65;;
72037;SDS011;59900;50.788;12.904;2022-08-19T06:03:47;33.83;;;16.00;;
72037;SDS011;59900;50.788;12.904;2022-08-19T06:06:16;38.03;;;16.70;;
72037;SDS011;59900;50.788;12.904;2022-08-19T06:08:42;37.58;;;16.30;;
72037;SDS011;59900;50.788;12.904;2022-08-19T06:11:21;38.88;;;16.55;;
72037;SDS011;59900;50.788;12.904;2022-08-19T06:14:00;36.53;;;15.88;;
72037;SDS011;59900;50.788;12.904;2022-08-19T06:16:32;35.43;;;16.77;;
72037;SDS011;59900;50.788;12.904;2022-08-19T06:19:00;37.40;;;16.52;;
72037;SDS011;59900;50.788;12.904;2022-08-19T06:21:28;37.47;;;15.82;;
72037;SDS011;59900;50.788;12.904;2022-08-19T06:23:57;35.55;;;16.85;;
72037;SDS011;59900;50.788;12.904;2022-08-19T06:26:23;37.75;;;17.58;;
72037;SDS011;59900;50.788;12.904;2022-08-19T06:28:50;35.60;;;16.43;;
72037;SDS011;59900;50.788;12.904;2022-08-19T06:31:20;36.03;;;16.23;;
72037;SDS011;59900;50.788;12.904;2022-08-19T06:33:50;37.25;;;15.88;;
72037;SDS011;59900;50.788;12.904;2022-08-19T06:36:30;37.57;;;16.40;;
72037;SDS011;59900;50.788;12.904;2022-08-19T06:38:59;34.13;;;16.00;;
72037;SDS011;59900;50.788;12.904;2022-08-19T06:41:29;35.95;;;16.15;;
72037;SDS011;59900;50.788;12.904;2022-08-19T06:43:55;35.45;;;16.50;;
72037;SDS011;59900;50.788;12.904;2022-08-19T06:46:22;38.53;;;17.05;;
72037;SDS011;59900;50.788;12.904;2022-08-19T06:48:48;39.67;;;17.47;;
72037;SDS011;59900;50.788;12.904;2022-08-19T06:51:15;39.45;;;17.20;;
72037;SDS011;59900;50.788;12.904;2022-08-19T06:53:43;38.07;;;17.37;;
72037;SDS011;59900;50.788;12.904;2022-08-19T06:56:17;38.67;;;17.50;;
72037;SDS011;59900;50.788;12.904;2022-08-19T06:58:45;40.33;;;17.70;;
72037;SDS011;59900;50.788;12.904;2022-08-19T07:01:11;36.22;;;17.40;;
72037;SDS011;59900;50.788;12.904;2022-08-19T07:03:38;42.17;;;17.63;;
72037;SDS011;59900;50.788;12.904;2022-08-19T07:06:08;38.60;;;17.63;;
72037;SDS011;59900;50.788;12.904;2022-08-19T07:08:35;38.30;;;18.40;;
72037;SDS011;59900;50.788;12.904;2022-08-19T07:11:05;40.75;;;17.30;;
72037;SDS011;59900;50.788;12.904;2022-08-19T07:13:31;38.53;;;17.65;;
72037;SDS011;59900;50.788;12.904;2022-08-19T07:15:58;37.30;;;17.60;;
72037;SDS011;59900;50.788;12.904;2022-08-19T07:18:27;35.30;;;16.98;;
72037;SDS011;59900;50.788;12.904;2022-08-19T07:21:01;36.28;;;15.30;;
72037;SDS011;59900;50.788;12.904;2022-08-19T07:23:37;36.97;;;16.37;;
72037;SDS011;59900;50.788;12.904;2022-08-19T07:26:10;35.90;;;16.10;;
72037;SDS011;59900;50.788;12.904;2022-08-19T07:28:37;36.27;;;16.50;;
72037;SDS011;59900;50.788;12.904;2022-08-19T07:31:04;37.40;;;16.67;;
72037;SDS011;59900;50.788;12.904;2022-08-19T07:33:31;36.10;;;16.58;;
72037;SDS011;59900;50.788;12.904;2022-08-19T07:35:57;37.83;;;16.90;;
72037;SDS011;59900;50.788;12.904;2022-08-19T07:38:23;33.80;;;16.67;;
72037;SDS011;59900;50.788;12.904;2022-08-19T07:40:48;34.97;;;16.70;;
72037;SDS011;59900;50.788;12.904;2022-08-19T07:43:13;35.70;;;17.13;;
72037;SDS011;59900;50.788;12.904;2022-08-19T07:45:40;31.95;;;15.23;;
72037;SDS011;59900;50.788;12.904;2022-08-19T07:48:05;32.83;;;16.07;;
72037;SDS011;59900;50.788;12.904;2022-08-19T07:50:30;31.97;;;15.10;;
72037;SDS011;59900;50.788;12.904;2022-08-19T07:52:57;26.58;;;12.70;;
72037;SDS011;59900;50.788;12.904;2022-08-19T07:55:23;28.67;;;14.10;;
72037;SDS011;59900;50.788;12.904;2022-08-19T07:57:50;32.58;;;16.60;;
72037;SDS011;59900;50.788;12.904;2022-08-19T08:00:18;35.15;;;16.75;;
72037;SDS011;59900;50.788;12.904;2022-08-19T08:02:43;35.07;;;17.33;;
72037;SDS011;59900;50.788;12.904;2022-08-19T08:05:09;32.10;;;16.83;;
72037;SDS011;59900;50.788;12.904;2022-08-19T08:07:54;35.42;;;17.20;;
72037;SDS011;59900;50.788;12.904;2022-08-19T08:10:38;30.00;;;16.02;;
72037;SDS011;59900;50.788;12.904;2022-08-19T08:13:03;31.97;;;17.10;;
72037;SDS011;59900;50.788;12.904;2022-08-19T08:15:30;35.25;;;18.13;;
72037;SDS011;59900;50.788;12.904;2022-08-19T08:17:55;32.63;;;16.37;;
72037;SDS011;59900;50.788;12.904;2022-08-19T08:20:25;31.98;;;17.23;;
72037;SDS011;59900;50.788;12.904;2022-08-19T08:22:50;34.47;;;18.38;;
72037;SDS011;59900;50.788;12.904;2022-08-19T08:25:35;35.22;;;17.80;;
72037;SDS011;59900;50.788;12.904;2022-08-19T08:28:01;32.70;;;17.20;;
72037;SDS011;59900;50.788;12.904;2022-08-19T08:30:28;36.20;;;18.10;;
72037;SDS011;59900;50.788;12.904;2022-08-19T08:32:55;33.70;;;16.83;;
72037;SDS011;59900;50.788;12.904;2022-08-19T08:35:21;32.83;;;17.83;;
72037;SDS011;59900;50.788;12.904;2022-08-19T08:37:48;33.55;;;17.77;;
72037;SDS011;59900;50.788;12.904;2022-08-19T08:42:50;34.30;;;18.33;;
72037;SDS011;59900;50.788;12.904;2022-08-19T08:45:25;36.08;;;18.65;;
72037;SDS011;59900;50.788;12.904;2022-08-19T08:47:51;36.50;;;18.57;;
72037;SDS011;59900;50.788;12.904;2022-08-19T08:50:21;39.13;;;19.92;;
72037;SDS011;59900;50.788;12.904;2022-08-19T08:52:55;37.08;;;19.20;;
72037;SDS011;59900;50.788;12.904;2022-08-19T08:55:23;37.15;;;19.30;;
72037;SDS011;59900;50.788;12.904;2022-08-19T08:57:53;33.95;;;19.45;;
72037;SDS011;59900;50.788;12.904;2022-08-19T09:00:25;37.00;;;20.83;;
72037;SDS011;59900;50.788;12.904;2022-08-19T09:02:54;37.88;;;21.08;;
72037;SDS011;59900;50.788;12.904;2022-08-19T09:05:21;39.97;;;21.73;;
72037;SDS011;59900;50.788;12.904;2022-08-19T09:07:52;40.03;;;20.80;;
72037;SDS011;59900;50.788;12.904;2022-08-19T09:10:33;40.00;;;21.40;;
72037;SDS011;59900;50.788;12.904;2022-08-19T09:15:40;37.72;;;20.98;;
72037;SDS011;59900;50.788;12.904;2022-08-19T09:18:10;44.97;;;21.38;;
72037;SDS011;59900;50.788;12.904;2022-08-19T09:20:36;43.43;;;21.80;;
72037;SDS011;59900;50.788;12.904;2022-08-19T09:23:01;47.17;;;24.57;;
72037;SDS011;59900;50.788;12.904;2022-08-19T09:25:26;43.83;;;23.63;;
72037;SDS011;59900;50.788;12.904;2022-08-19T09:27:53;44.63;;;23.30;;
72037;SDS011;59900;50.788;12.904;2022-08-19T09:30:29;48.58;;;25.48;;
72037;SDS011;59900;50.788;12.904;2022-08-19T09:32:58;45.23;;;24.93;;
72037;SDS011;59900;50.788;12.904;2022-08-19T09:35:25;45.30;;;24.08;;
72037;SDS011;59900;50.788;12.904;2022-08-19T09:37:53;45.35;;;24.67;;
72037;SDS011;59900;50.788;12.904;2022-08-19T09:40:19;47.05;;;23.80;;
72037;SDS011;59900;50.788;12.904;2022-08-19T09:42:45;49.13;;;25.27;;
72037;SDS011;59900;50.788;12.904;2022-08-19T09:45:14;43.95;;;24.70;;
72037;SDS011;59900;50.788;12.904;2022-08-19T09:47:41;41.63;;;23.42;;
72037;SDS011;59900;50.788;12.904;2022-08-19T09:50:07;50.33;;;24.57;;
72037;SDS011;59900;50.788;12.904;2022-08-19T09:52:35;45.37;;;24.00;;
72037;SDS011;59900;50.788;12.904;2022-08-19T09:55:04;46.15;;;24.60;;
72037;SDS011;59900;50.788;12.904;2022-08-19T09:57:30;47.03;;;24.70;;
72037;SDS011;59900;50.788;12.904;2022-08-19T09:59:56;44.57;;;24.70;;
72037;SDS011;59900;50.788;12.904;2022-08-19T10:02:21;42.30;;;23.53;;
72037;SDS011;59900;50.788;12.904;2022-08-19T10:04:46;42.50;;;22.93;;
72037;SDS011;59900;50.788;12.904;2022-08-19T10:07:30;39.47;;;22.00;;
72037;SDS011;59900;50.788;12.904;2022-08-19T10:09:56;35.10;;;20.87;;
72037;SDS011;59900;50.788;12.904;2022-08-19T10:12:21;39.58;;;21.13;;
72037;SDS011;59900;50.788;12.904;2022-08-19T10:14:47;35.08;;;20.13;;
72037;SDS011;59900;50.788;12.904;2022-08-19T10:17:13;39.57;;;21.43;;
72037;SDS011;59900;50.788;12.904;2022-08-19T10:19:39;41.20;;;21.90;;
72037;SDS011;59900;50.788;12.904;2022-08-19T10:22:05;40.83;;;21.98;;
72037;SDS011;59900;50.788;12.904;2022-08-19T10:24:32;44.73;;;24.33;;
72037;SDS011;59900;50.788;12.904;2022-08-19T10:26:59;47.33;;;23.90;;
72037;SDS011;59900;50.788;12.904;2022-08-19T10:29:26;46.20;;;24.08;;
72037;SDS011;59900;50.788;12.904;2022-08-19T10:31:53;50.67;;;25.17;;
72037;SDS011;59900;50.788;12.904;2022-08-19T10:34:18;49.00;;;25.87;;
72037;SDS011;59900;50.788;12.904;2022-08-19T10:36:44;51.35;;;25.70;;
72037;SDS011;59900;50.788;12.904;2022-08-19T10:39:10;57.20;;;26.93;;
72037;SDS011;59900;50.788;12.904;2022-08-19T10:41:37;56.75;;;27.10;;
72037;SDS011;59900;50.788;12.904;2022-08-19T10:44:06;56.78;;;27.20;;
72037;SDS011;59900;50.788;12.904;2022-08-19T10:46:33;64.50;;;27.63;;
72037;SDS011;59900;50.788;12.904;2022-08-19T10:49:04;54.85;;;25.77;;
72037;SDS011;59900;50.788;12.904;2022-08-19T10:51:30;59.20;;;26.43;;
72037;SDS011;59900;50.788;12.904;2022-08-19T10:54:15;53.70;;;25.50;;
72037;SDS011;59900;50.788;12.904;2022-08-19T10:56:41;50.38;;;26.63;;
72037;SDS011;59900;50.788;12.904;2022-08-19T10:59:20;46.17;;;23.83;;
72037;SDS011;59900;50.788;12.904;2022-08-19T11:01:48;44.75;;;22.92;;
72037;SDS011;59900;50.788;12.904;2022-08-19T11:04:14;44.10;;;22.80;;
72037;SDS011;59900;50.788;12.904;2022-08-19T11:06:42;50.75;;;24.38;;
72037;SDS011;59900;50.788;12.904;2022-08-19T11:09:10;46.33;;;24.30;;
72037;SDS011;59900;50.788;12.904;2022-08-19T11:11:37;46.95;;;25.52;;
72037;SDS011;59900;50.788;12.904;2022-08-19T11:14:09;52.88;;;25.80;;
72037;SDS011;59900;50.788;12.904;2022-08-19T11:16:37;50.57;;;26.10;;
72037;SDS011;59900;50.788;12.904;2022-08-19T11:19:04;52.28;;;25.88;;
72037;SDS011;59900;50.788;12.904;2022-08-19T11:21:33;52.65;;;25.10;;
72037;SDS011;59900;50.788;12.904;2022-08-19T11:24:02;47.75;;;25.80;;
72037;SDS011;59900;50.788;12.904;2022-08-19T11:26:30;46.33;;;25.17;;
72037;SDS011;59900;50.788;12.904;2022-08-19T11:28:57;49.27;;;25.23;;
72037;SDS011;59900;50.788;12.904;2022-08-19T11:31:24;47.95;;;26.23;;
72037;SDS011;59900;50.788;12.904;2022-08-19T11:33:52;46.22;;;24.42;;
72037;SDS011;59900;50.788;12.904;2022-08-19T11:36:19;54.83;;;26.40;;
72037;SDS011;59900;50.788;12.904;2022-08-19T11:38:46;54.92;;;26.77;;
72037;SDS011;59900;50.788;12.904;2022-08-19T11:41:13;57.30;;;28.07;;
72037;SDS011;59900;50.788;12.904;2022-08-19T11:43:39;57.97;;;26.48;;
72037;SDS011;59900;50.788;12.904;2022-08-19T11:46:05;59.10;;;25.67;;
72037;SDS011;59900;50.788;12.904;2022-08-19T11:48:32;56.28;;;26.48;;
72037;SDS011;59900;50.788;12.904;2022-08-19T11:50:57;55.80;;;26.77;;
72037;SDS011;59900;50.788;12.904;2022-08-19T11:53:22;59.37;;;26.87;;
72037;SDS011;59900;50.788;12.904;2022-08-19T11:55:48;53.40;;;25.10;;
72037;SDS011;59900;50.788;12.904;2022-08-19T11:58:15;51.92;;;24.02;;
72037;SDS011;59900;50.788;12.904;2022-08-19T12:00:42;53.97;;;24.23;;
72037;SDS011;59900;50.788;12.904;2022-08-19T12:03:10;52.78;;;23.50;;
72037;SDS011;59900;50.788;12.904;2022-08-19T12:05:36;54.72;;;25.77;;
72037;SDS011;59900;50.788;12.904;2022-08-19T12:08:02;46.65;;;24.70;;
72037;SDS011;59900;50.788;12.904;2022-08-19T12:10:28;48.90;;;24.53;;
72037;SDS011;59900;50.788;12.904;2022-08-19T12:12:56;52.03;;;26.73;;
72037;SDS011;59900;50.788;12.904;2022-08-19T12:15:22;55.95;;;25.90;;
72037;SDS011;59900;50.788;12.904;2022-08-19T12:17:47;55.77;;;28.30;;
72037;SDS011;59900;50.788;12.904;2022-08-19T12:20:13;60.77;;;27.40;;
72037;SDS011;59900;50.788;12.904;2022-08-19T12:22:40;58.30;;;26.73;;
72037;SDS011;59900;50.788;12.904;2022-08-19T12:25:06;60.88;;;26.95;;
72037;SDS011;59900;50.788;12.904;2022-08-19T12:27:32;61.45;;;27.35;;
72037;SDS011;59900;50.788;12.904;2022-08-19T12:29:57;59.07;;;27.17;;
72037;SDS011;59900;50.788;12.904;2022-08-19T12:32:25;61.67;;;28.75;;
72037;SDS011;59900;50.788;12.904;2022-08-19T12:34:51;65.87;;;29.60;;
72037;SDS011;59900;50.788;12.904;2022-08-19T12:37:17;75.37;;;31.50;;
72037;SDS011;59900;50.788;12.904;2022-08-19T12:39:42;72.33;;;30.20;;
72037;SDS011;59900;50.788;12.904;2022-08-19T12:42:12;80.23;;;31.87;;
72037;SDS011;59900;50.788;12.904;2022-08-19T12:44:39;83.20;;;33.92;;
72037;SDS011;59900;50.788;12.904;2022-08-19T12:47:06;76.20;;;30.33;;
72037;SDS011;59900;50.788;12.904;2022-08-19T12:49:34;81.10;;;32.10;;
72037;SDS011;59900;50.788;12.904;2022-08-19T12:52:01;80.28;;;31.23;;
72037;SDS011;59900;50.788;12.904;2022-08-19T12:54:30;80.20;;;32.13;;
72037;SDS011;59900;50.788;12.904;2022-08-19T12:56:56;77.70;;;31.73;;
72037;SDS011;59900;50.788;12.904;2022-08-19T12:59:22;82.50;;;32.75;;
72037;SDS011;59900;50.788;12.904;2022-08-19T13:01:47;76.63;;;31.07;;
72037;SDS011;59900;50.788;12.904;2022-08-19T13:04:13;78.63;;;32.30;;
72037;SDS011;59900;50.788;12.904;2022-08-19T13:06:38;83.07;;;31.73;;
72037;SDS011;59900;50.788;12.904;2022-08-19T13:09:04;79.30;;;32.67;;
72037;SDS011;59900;50.788;12.904;2022-08-19T13:11:30;82.18;;;32.80;;
72037;SDS011;59900;50.788;12.904;2022-08-19T13:13:59;75.80;;;31.48;;
72037;SDS011;59900;50.788;12.904;2022-08-19T13:16:25;77.47;;;32.33;;
72037;SDS011;59900;50.788;12.904;2022-08-19T13:18:52;75.77;;;32.50;;
72037;SDS011;59900;50.788;12.904;2022-08-19T13:21:19;75.80;;;31.73;;
72037;SDS011;59900;50.788;12.904;2022-08-19T13:23:46;65.53;;;31.17;;
72037;SDS011;59900;50.788;12.904;2022-08-19T13:26:12;71.93;;;31.37;;
72037;SDS011;59900;50.788;12.904;2022-08-19T13:28:38;74.18;;;31.40;;
72037;SDS011;59900;50.788;12.904;2022-08-19T13:31:23;68.47;;;30.92;;
72037;SDS011;59900;50.788;12.904;2022-08-19T13:34:08;66.05;;;29.77;;
72037;SDS011;59900;50.788;12.904;2022-08-19T13:36:33;67.57;;;30.37;;
72037;SDS011;59900;50.788;12.904;2022-08-19T13:39:00;63.03;;;28.33;;
72037;SDS011;59900;50.788;12.904;2022-08-19T13:41:26;66.73;;;29.47;;
72037;SDS011;59900;50.788;12.904;2022-08-19T13:43:52;65.53;;;30.00;;
72037;SDS011;59900;50.788;12.904;2022-08-19T13:46:21;63.03;;;29.23;;
72037;SDS011;59900;50.788;12.904;2022-08-19T13:48:46;68.33;;;30.90;;
72037;SDS011;59900;50.788;12.904;2022-08-19T13:51:13;66.57;;;29.98;;
72037;SDS011;59900;50.788;12.904;2022-08-19T13:53:41;63.55;;;28.95;;
72037;SDS011;59900;50.788;12.904;2022-08-19T13:56:08;63.20;;;29.58;;
72037;SDS011;59900;50.788;12.904;2022-08-19T13:58:35;65.80;;;31.33;;
72037;SDS011;59900;50.788;12.904;2022-08-19T14:01:01;70.90;;;30.83;;
72037;SDS011;59900;50.788;12.904;2022-08-19T14:03:26;62.83;;;29.38;;
72037;SDS011;59900;50.788;12.904;2022-08-19T14:05:52;69.63;;;31.57;;
72037;SDS011;59900;50.788;12.904;2022-08-19T14:08:18;73.17;;;30.53;;
72037;SDS011;59900;50.788;12.904;2022-08-19T14:10:43;70.13;;;31.05;;
72037;SDS011;59900;50.788;12.904;2022-08-19T14:13:10;73.38;;;31.63;;
72037;SDS011;59900;50.788;12.904;2022-08-19T14:15:38;63.95;;;28.98;;
72037;SDS011;59900;50.788;12.904;2022-08-19T14:18:04;63.83;;;30.23;;
72037;SDS011;59900;50.788;12.904;2022-08-19T14:20:29;64.53;;;29.63;;